الصفحة الرئيسية
METAR-TAF:

METAR-TAF

مطار :

Rota, جزر ماريانا, الولايات المتحدة

دائرة عرض: 14-11N, خط طول: 145-15E, ارتفاع: 185 متر

مراقبة الطقس الحالي

تاريخ ووقت الإصدار 7ساعات و 14 دقيقة قبل الساعة 07:50UTC
ريح 11 عقدة من الشرق
درجة الحرارة 28°درجة مئوية
الرطوبة 79%
ضغط 1010 hPa
الرؤية: 11.3 كم
غيوم متفرقة على ارتفاع 1500 قدم
غيوم مفككة على ارتفاع 10000 قدم

METAR: PGRO 110750Z 08011KT 7SM SCT015 BKN100 28/24 A2983 RMK LAST

زمن: 01:04 (15:04 UTC)

توقعات

تاريخ ووقت الإصدار 9ساعات و 14 دقيقة قبل الساعة 05:50UTC
التوقعات صالحة من11 الساعة 06 UTC إلى 12 الساعة 06 UTC
ريح 11 عقدة من الشرق تتزايد حتى 18 عقدة
الرؤية: 10 كم
غيوم قليلة على ارتفاع 1800 قدم
غيوم متفرقة على ارتفاع 5000 قدم
غيوم متفرقة على ارتفاع 12000 قدم
زخات في الجوار
من 11 الساعة 0900 UTC
ريح 9 عقدة من الشرق
الرؤية: 10 كم
غيوم قليلة على ارتفاع 2000 قدم
غيوم متفرقة على ارتفاع 5000 قدم
زخات في الجوار

TAF: PGRO 110550Z 1106/1206 08011G18KT P6SM VCSH FEW018 SCT050 SCT120 FM110900 08009KT P6SM VCSH FEW020 SCT050

أرصاد الطقس والتوقعات من أكثر من 4000 مطار (تقارير الطقس للمطار METAR والتنبؤ بالطقس بالمطارTAF).

المحطات المتاحة هي النقط الصفراء والحمراء على الخريطة.

حرك المؤشر فوق النقطة لمعرفة اسم المحطة.

ثم انقر لمعرفة أرصاد وتوقعات الطقس.

لتغيير الخارطة: اضغط على الأزرار الخضراء مع رمز الصليب الأسود للتكبير. على الزر الأخضر مع شرطة للتصغير، أو على الأسهم الخضراء للخرائط المجاورة.


METAR-TAF: